Time;durP1;ratioP1;P1;durP2;ratioP2;P2;SDS_P1;SDS_P2;PMS_P1;PMS_P2;Temp;Humidity;BMP_temperature;BMP_pressure;BME280_temperature;BME280_humidity;BME280_pressure;Samples;Min_cycle;Max_cycle;Signal;HPM_P1;HPM_P2
2023/09/10 00:00:29;;;;;;;14.55;12.27;;;;;;;;;;4959023;28;20046;-86
2023/09/10 00:02:54;;;;;;;13.50;12.13;;;;;;;;;;4947109;28;20349;-85
2023/09/10 00:05:22;;;;;;;13.50;12.10;;;;;;;;;;4969451;28;20092;-87
2023/09/10 00:07:47;;;;;;;13.45;11.55;;;;;;;;;;4949816;28;20106;-86
2023/09/10 00:10:12;;;;;;;12.95;11.60;;;;;;;;;;4951498;28;20027;-85
2023/09/10 00:12:38;;;;;;;13.68;11.18;;;;;;;;;;4952664;28;20550;-85
2023/09/10 00:15:04;;;;;;;12.70;11.00;;;;;;;;;;4950097;28;20027;-86
2023/09/10 00:17:30;;;;;;;12.88;10.88;;;;;;;;;;4951075;28;20726;-86
2023/09/10 00:19:55;;;;;;;12.35;10.98;;;;;;;;;;4949006;28;20363;-86
2023/09/10 00:22:21;;;;;;;12.48;11.18;;;;;;;;;;4949620;28;20027;-86
2023/09/10 00:24:46;;;;;;;12.13;10.55;;;;;;;;;;4949189;28;20497;-83
2023/09/10 00:27:13;;;;;;;11.57;10.38;;;;;;;;;;4946792;28;20399;-83
2023/09/10 00:29:39;;;;;;;11.07;9.95;;;;;;;;;;4949300;29;20510;-82
2023/09/10 00:32:04;;;;;;;11.40;10.23;;;;;;;;;;4963874;28;20031;-82
2023/09/10 00:34:31;;;;;;;13.18;10.68;;;;;;;;;;4947720;28;20019;-82
2023/09/10 00:36:56;;;;;;;11.85;10.60;;;;;;;;;;4947952;28;20019;-82
2023/09/10 00:39:22;;;;;;;12.10;10.13;;;;;;;;;;4950219;28;20023;-82
2023/09/10 00:41:48;;;;;;;11.38;10.20;;;;;;;;;;4948694;28;20110;-82
2023/09/10 00:44:13;;;;;;;11.30;10.10;;;;;;;;;;4946592;28;20126;-82
2023/09/10 00:46:39;;;;;;;12.27;11.00;;;;;;;;;;4951497;29;20415;-82
2023/09/10 00:49:05;;;;;;;12.30;10.93;;;;;;;;;;4941224;29;20026;-83
2023/09/10 00:51:36;;;;;;;11.90;10.43;;;;;;;;;;4951988;28;20121;-82
2023/09/10 00:54:01;;;;;;;12.00;10.27;;;;;;;;;;4949434;29;20023;-83
2023/09/10 00:56:26;;;;;;;13.43;11.10;;;;;;;;;;4950429;29;20027;-82
2023/09/10 00:58:53;;;;;;;13.43;12.02;;;;;;;;;;4947994;28;20082;-82
2023/09/10 01:01:19;;;;;;;12.07;10.65;;;;;;;;;;4944206;28;20116;-82
2023/09/10 01:03:44;;;;;;;11.82;10.63;;;;;;;;;;4946079;28;20551;-83
2023/09/10 01:06:09;;;;;;;13.30;11.05;;;;;;;;;;4953094;28;20037;-82
2023/09/10 01:08:35;;;;;;;12.75;11.45;;;;;;;;;;4951802;29;20035;-82
2023/09/10 01:11:39;;;;;;;13.00;11.18;;;;;;;;;;4950364;29;20031;-82
2023/09/10 01:14:28;;;;;;;12.57;11.27;;;;;;;;;;4964558;28;20038;-83
2023/09/10 01:17:05;;;;;;;12.57;10.38;;;;;;;;;;4949335;29;20403;-82
2023/09/10 01:19:59;;;;;;;15.38;11.05;;;;;;;;;;4951095;28;20126;-82
2023/09/10 01:22:26;;;;;;;12.63;11.15;;;;;;;;;;4947759;28;20030;-83
2023/09/10 01:24:52;;;;;;;12.18;10.85;;;;;;;;;;4966945;28;20395;-82
2023/09/10 01:27:18;;;;;;;12.50;10.70;;;;;;;;;;4947973;28;20031;-86
2023/09/10 01:29:44;;;;;;;12.35;11.05;;;;;;;;;;4964626;28;20031;-86
2023/09/10 01:32:36;;;;;;;12.02;10.75;;;;;;;;;;4949295;29;20364;-85
2023/09/10 01:35:25;;;;;;;13.32;10.38;;;;;;;;;;4948104;28;20483;-81
2023/09/10 01:38:15;;;;;;;11.30;10.18;;;;;;;;;;4948382;28;20027;-84
2023/09/10 01:40:45;;;;;;;14.02;11.43;;;;;;;;;;4951022;28;20085;-87
2023/09/10 01:43:11;;;;;;;12.38;11.07;;;;;;;;;;4950575;29;20035;-85
2023/09/10 01:45:37;;;;;;;11.68;10.43;;;;;;;;;;4951529;28;20436;-86
2023/09/10 01:48:03;;;;;;;12.73;11.35;;;;;;;;;;4941149;28;20019;-86
2023/09/10 01:50:31;;;;;;;12.77;11.18;;;;;;;;;;4947619;28;20055;-86
2023/09/10 01:52:58;;;;;;;12.73;11.38;;;;;;;;;;4951578;28;20034;-86
2023/09/10 01:55:24;;;;;;;13.98;11.48;;;;;;;;;;4951588;28;20042;-86
2023/09/10 01:57:49;;;;;;;15.60;11.68;;;;;;;;;;4947613;28;20031;-82
2023/09/10 02:00:15;;;;;;;12.27;10.90;;;;;;;;;;4948385;29;20435;-82
2023/09/10 02:02:40;;;;;;;14.88;11.57;;;;;;;;;;4953988;28;20403;-86
2023/09/10 02:05:06;;;;;;;12.35;11.07;;;;;;;;;;4951951;28;20043;-86
2023/09/10 02:07:31;;;;;;;12.77;11.45;;;;;;;;;;4956292;28;20122;-86
2023/09/10 02:09:58;;;;;;;12.65;11.13;;;;;;;;;;4950333;29;20027;-87
2023/09/10 02:12:24;;;;;;;12.05;10.82;;;;;;;;;;4954512;28;20023;-86
2023/09/10 02:14:49;;;;;;;15.55;11.40;;;;;;;;;;4955152;29;20027;-82
2023/09/10 02:17:15;;;;;;;14.02;11.25;;;;;;;;;;4956994;28;20074;-82
2023/09/10 02:19:40;;;;;;;13.50;12.13;;;;;;;;;;4957684;28;20476;-82
2023/09/10 02:22:06;;;;;;;13.05;11.27;;;;;;;;;;4955261;28;20558;-82
2023/09/10 02:24:31;;;;;;;12.88;11.45;;;;;;;;;;4952776;29;20423;-82
2023/09/10 02:26:56;;;;;;;13.65;11.65;;;;;;;;;;4952366;28;20082;-82
2023/09/10 02:29:21;;;;;;;13.63;11.60;;;;;;;;;;4966458;28;20488;-82
2023/09/10 02:31:47;;;;;;;13.50;11.80;;;;;;;;;;4952636;28;20560;-82
2023/09/10 02:34:12;;;;;;;12.52;11.23;;;;;;;;;;4951580;28;20093;-82
2023/09/10 02:36:37;;;;;;;13.45;11.88;;;;;;;;;;4950593;28;20456;-82
2023/09/10 02:39:03;;;;;;;12.25;10.98;;;;;;;;;;4954020;28;20035;-82
2023/09/10 02:41:28;;;;;;;13.35;11.98;;;;;;;;;;4950683;28;20030;-82
2023/09/10 02:43:54;;;;;;;14.80;12.45;;;;;;;;;;4948769;29;20046;-82
2023/09/10 02:46:19;;;;;;;14.23;12.68;;;;;;;;;;4950436;29;20031;-82
2023/09/10 02:48:44;;;;;;;13.90;11.65;;;;;;;;;;4956431;28;20019;-82
2023/09/10 02:51:10;;;;;;;14.50;12.57;;;;;;;;;;4956549;28;20118;-86
2023/09/10 02:53:35;;;;;;;13.18;11.80;;;;;;;;;;4950350;28;20028;-85
2023/09/10 02:56:02;;;;;;;12.25;10.95;;;;;;;;;;4955748;28;20031;-86
2023/09/10 02:58:27;;;;;;;12.93;11.63;;;;;;;;;;4956642;28;20027;-87
2023/09/10 03:00:53;;;;;;;13.25;11.52;;;;;;;;;;4948873;28;20041;-86
2023/09/10 03:03:19;;;;;;;14.52;13.02;;;;;;;;;;4953849;29;20023;-86
2023/09/10 03:05:47;;;;;;;15.70;12.20;;;;;;;;;;4952190;29;20395;-86
2023/09/10 03:08:13;;;;;;;14.35;12.82;;;;;;;;;;4969105;28;20415;-84
2023/09/10 03:10:38;;;;;;;14.90;13.23;;;;;;;;;;4952311;28;20023;-87
2023/09/10 03:13:04;;;;;;;13.73;12.02;;;;;;;;;;4952023;28;20476;-81
2023/09/10 03:15:29;;;;;;;13.55;12.13;;;;;;;;;;4951123;28;20046;-80
2023/09/10 03:17:54;;;;;;;14.68;13.10;;;;;;;;;;4952158;29;20058;-80
2023/09/10 03:20:20;;;;;;;13.43;12.02;;;;;;;;;;4953799;28;20456;-81
2023/09/10 03:22:45;;;;;;;15.50;12.35;;;;;;;;;;4953995;28;20033;-81
2023/09/10 03:25:11;;;;;;;15.05;13.05;;;;;;;;;;4951228;28;20039;-82
2023/09/10 03:27:36;;;;;;;15.05;12.52;;;;;;;;;;4948212;28;20502;-80
2023/09/10 03:30:05;;;;;;;14.18;12.60;;;;;;;;;;4954576;29;20029;-80
2023/09/10 03:32:30;;;;;;;14.65;13.15;;;;;;;;;;4948710;29;20070;-83
2023/09/10 03:34:56;;;;;;;18.30;14.05;;;;;;;;;;4948338;28;20032;-82
2023/09/10 03:37:21;;;;;;;17.33;13.07;;;;;;;;;;4946152;28;20033;-80
2023/09/10 03:39:47;;;;;;;15.57;12.88;;;;;;;;;;4953148;28;20114;-81
2023/09/10 03:42:12;;;;;;;16.00;13.38;;;;;;;;;;4945740;28;20039;-81
2023/09/10 03:44:37;;;;;;;16.40;13.85;;;;;;;;;;4952134;28;20117;-81
2023/09/10 03:47:03;;;;;;;15.48;12.98;;;;;;;;;;4951491;29;20042;-81
2023/09/10 03:49:28;;;;;;;15.15;13.50;;;;;;;;;;4952945;29;20027;-81
2023/09/10 03:51:57;;;;;;;14.07;12.45;;;;;;;;;;4950707;28;20050;-81
2023/09/10 03:54:22;;;;;;;16.83;12.48;;;;;;;;;;4951548;29;20556;-82
2023/09/10 03:56:47;;;;;;;16.83;13.32;;;;;;;;;;4949314;28;20035;-82
2023/09/10 03:59:13;;;;;;;15.48;13.95;;;;;;;;;;4950364;29;20364;-82
2023/09/10 04:01:38;;;;;;;14.93;13.38;;;;;;;;;;4948089;29;20387;-82
2023/09/10 04:04:04;;;;;;;15.45;13.25;;;;;;;;;;4951529;28;20078;-82
2023/09/10 04:06:29;;;;;;;15.00;13.45;;;;;;;;;;4952684;29;20042;-82
2023/09/10 04:08:54;;;;;;;17.08;13.48;;;;;;;;;;4947754;28;20023;-82
2023/09/10 04:11:20;;;;;;;15.27;13.65;;;;;;;;;;4950933;28;20392;-82
2023/09/10 04:13:45;;;;;;;16.92;13.80;;;;;;;;;;4953018;29;20399;-82
2023/09/10 04:16:11;;;;;;;14.60;12.57;;;;;;;;;;4954258;28;20391;-82
2023/09/10 04:18:36;;;;;;;16.50;14.77;;;;;;;;;;4956538;28;20163;-83
2023/09/10 04:21:04;;;;;;;17.77;15.68;;;;;;;;;;4949125;28;20114;-83
2023/09/10 04:23:30;;;;;;;15.45;13.52;;;;;;;;;;4968889;28;20027;-82
2023/09/10 04:25:56;;;;;;;17.40;15.60;;;;;;;;;;4951298;28;20498;-83
2023/09/10 04:28:21;;;;;;;17.55;15.27;;;;;;;;;;4952455;28;20023;-82
2023/09/10 04:30:50;;;;;;;16.92;15.13;;;;;;;;;;4968899;28;20122;-82
2023/09/10 04:33:18;;;;;;;18.17;14.75;;;;;;;;;;4947364;28;20050;-82
2023/09/10 04:35:49;;;;;;;18.20;16.30;;;;;;;;;;4949726;28;20391;-83
2023/09/10 04:38:14;;;;;;;16.98;15.20;;;;;;;;;;4947355;29;20075;-82
2023/09/10 04:40:41;;;;;;;18.65;16.48;;;;;;;;;;4954328;28;20491;-82
2023/09/10 04:43:07;;;;;;;16.77;14.75;;;;;;;;;;4947335;28;20034;-82
2023/09/10 04:45:32;;;;;;;17.30;15.45;;;;;;;;;;4953539;28;20395;-82
2023/09/10 04:47:57;;;;;;;16.25;14.40;;;;;;;;;;4951259;28;21600;-83
2023/09/10 04:50:23;;;;;;;18.13;14.52;;;;;;;;;;4951406;28;20031;-82
2023/09/10 04:52:48;;;;;;;18.48;16.58;;;;;;;;;;4945858;28;20038;-82
2023/09/10 04:55:15;;;;;;;18.05;16.15;;;;;;;;;;4949543;28;20039;-82
2023/09/10 04:57:41;;;;;;;19.10;16.25;;;;;;;;;;4949060;28;20037;-83
2023/09/10 05:00:09;;;;;;;18.20;16.23;;;;;;;;;;4947421;28;20038;-82
2023/09/10 05:02:34;;;;;;;16.95;15.13;;;;;;;;;;4951045;28;20038;-82
2023/09/10 05:04:59;;;;;;;18.23;15.75;;;;;;;;;;4949449;28;20411;-82
2023/09/10 05:07:25;;;;;;;17.65;15.18;;;;;;;;;;4948100;28;20066;-82
2023/09/10 05:09:50;;;;;;;16.25;14.55;;;;;;;;;;4950224;28;20031;-82
2023/09/10 05:12:15;;;;;;;17.52;14.68;;;;;;;;;;4948430;28;20034;-81
2023/09/10 05:14:41;;;;;;;17.83;15.65;;;;;;;;;;4950788;29;20031;-81
2023/09/10 05:17:06;;;;;;;17.75;15.70;;;;;;;;;;4947612;28;20026;-81
2023/09/10 05:19:32;;;;;;;17.35;15.45;;;;;;;;;;4950111;28;20023;-81
2023/09/10 05:21:59;;;;;;;17.92;15.35;;;;;;;;;;4945389;28;20035;-83
2023/09/10 05:24:24;;;;;;;16.48;14.40;;;;;;;;;;4950004;28;20542;-83
2023/09/10 05:26:50;;;;;;;16.92;15.00;;;;;;;;;;4946960;28;20020;-82
2023/09/10 05:29:15;;;;;;;16.83;15.00;;;;;;;;;;4949446;28;20030;-82
2023/09/10 05:31:40;;;;;;;18.88;16.90;;;;;;;;;;4944913;28;20035;-83
2023/09/10 05:34:05;;;;;;;19.33;17.33;;;;;;;;;;4959471;28;20023;-82
2023/09/10 05:36:31;;;;;;;18.60;16.42;;;;;;;;;;4948038;28;20023;-83
2023/09/10 05:38:56;;;;;;;18.15;16.25;;;;;;;;;;4950227;28;20031;-82
2023/09/10 05:41:22;;;;;;;21.02;17.05;;;;;;;;;;4948484;28;20034;-82
2023/09/10 05:43:47;;;;;;;20.65;18.15;;;;;;;;;;4965723;28;20759;-82
2023/09/10 05:46:12;;;;;;;18.17;16.25;;;;;;;;;;4951715;28;20106;-82
2023/09/10 05:48:38;;;;;;;19.83;16.75;;;;;;;;;;4951122;28;20396;-83
2023/09/10 05:51:04;;;;;;;21.48;19.02;;;;;;;;;;4967295;28;20027;-83
2023/09/10 05:53:29;;;;;;;21.85;18.35;;;;;;;;;;4955678;28;20023;-82
2023/09/10 05:55:54;;;;;;;21.73;18.05;;;;;;;;;;4952853;28;20450;-82
2023/09/10 05:58:20;;;;;;;21.88;18.38;;;;;;;;;;4951841;28;20086;-82
2023/09/10 06:00:46;;;;;;;22.27;19.17;;;;;;;;;;4963818;28;20050;-82
2023/09/10 06:03:11;;;;;;;23.83;20.17;;;;;;;;;;4946169;28;20034;-82
2023/09/10 06:05:36;;;;;;;26.20;21.42;;;;;;;;;;4951335;28;20462;-82
2023/09/10 06:08:02;;;;;;;26.25;21.00;;;;;;;;;;4949489;28;20399;-82
2023/09/10 06:10:27;;;;;;;24.15;20.88;;;;;;;;;;4955225;28;20037;-82
2023/09/10 06:12:53;;;;;;;30.75;23.85;;;;;;;;;;4951827;28;20039;-82
2023/09/10 06:15:18;;;;;;;25.83;21.45;;;;;;;;;;4965075;28;20031;-82
2023/09/10 06:17:46;;;;;;;27.02;21.10;;;;;;;;;;4945810;28;20023;-82
2023/09/10 06:20:14;;;;;;;26.30;22.88;;;;;;;;;;4954303;28;20027;-83
2023/09/10 06:22:39;;;;;;;29.45;24.55;;;;;;;;;;4954080;28;20035;-81
2023/09/10 06:25:05;;;;;;;26.20;22.67;;;;;;;;;;4955748;28;20057;-81
2023/09/10 06:27:30;;;;;;;24.48;21.65;;;;;;;;;;4952144;28;20377;-81
2023/09/10 06:29:56;;;;;;;27.88;24.25;;;;;;;;;;4949943;28;20082;-80
2023/09/10 06:32:21;;;;;;;27.75;22.30;;;;;;;;;;4951726;28;20027;-80
2023/09/10 06:34:48;;;;;;;26.35;22.10;;;;;;;;;;4946728;28;20067;-80
2023/09/10 06:37:13;;;;;;;23.15;19.35;;;;;;;;;;4946153;28;20439;-81
2023/09/10 06:39:39;;;;;;;24.10;21.50;;;;;;;;;;4956160;28;20030;-81
2023/09/10 06:42:07;;;;;;;25.38;21.55;;;;;;;;;;4949314;28;20083;-82
2023/09/10 06:44:35;;;;;;;21.73;17.85;;;;;;;;;;4954659;28;20031;-80
2023/09/10 06:47:01;;;;;;;28.45;24.27;;;;;;;;;;4952630;28;20365;-81
2023/09/10 06:49:26;;;;;;;21.92;18.23;;;;;;;;;;4947980;28;20086;-82
2023/09/10 06:51:52;;;;;;;29.45;24.58;;;;;;;;;;4968660;28;20066;-81
2023/09/10 06:54:17;;;;;;;29.77;25.70;;;;;;;;;;4952418;28;20031;-82
2023/09/10 06:56:42;;;;;;;28.05;24.75;;;;;;;;;;4968751;28;20491;-81
2023/09/10 06:59:08;;;;;;;29.67;25.80;;;;;;;;;;4950265;28;20432;-81
2023/09/10 07:01:37;;;;;;;27.75;23.83;;;;;;;;;;4945178;28;20111;-80
2023/09/10 07:04:17;;;;;;;28.60;25.10;;;;;;;;;;4952491;28;20126;-80
2023/09/10 07:06:47;;;;;;;31.08;25.42;;;;;;;;;;4949720;28;20431;-81
2023/09/10 07:09:18;;;;;;;30.10;23.65;;;;;;;;;;4943237;28;20105;-80
2023/09/10 07:11:43;;;;;;;26.33;23.50;;;;;;;;;;4945369;28;20030;-82
2023/09/10 07:14:09;;;;;;;28.35;23.50;;;;;;;;;;4948698;28;20055;-83
2023/09/10 07:16:34;;;;;;;28.42;23.92;;;;;;;;;;4930029;28;20035;-81
2023/09/10 07:19:00;;;;;;;33.85;24.00;;;;;;;;;;4946627;28;20034;-82
2023/09/10 07:21:26;;;;;;;30.70;25.02;;;;;;;;;;4950335;29;20534;-82
2023/09/10 07:23:52;;;;;;;31.63;24.15;;;;;;;;;;4967462;28;20031;-81
2023/09/10 07:26:17;;;;;;;28.67;24.67;;;;;;;;;;4938047;28;20322;-84
2023/09/10 07:28:42;;;;;;;29.70;25.02;;;;;;;;;;4940801;28;20384;-85
2023/09/10 07:31:07;;;;;;;30.15;23.63;;;;;;;;;;4933555;28;20473;-85
2023/09/10 07:33:33;;;;;;;29.23;24.27;;;;;;;;;;4945517;28;20031;-86
2023/09/10 07:36:00;;;;;;;28.17;24.17;;;;;;;;;;4959478;28;20032;-83
2023/09/10 07:38:25;;;;;;;26.98;23.30;;;;;;;;;;4960464;28;20022;-82
2023/09/10 07:40:50;;;;;;;27.95;22.52;;;;;;;;;;4944977;28;20031;-81
2023/09/10 07:43:16;;;;;;;27.00;20.80;;;;;;;;;;4946577;28;20384;-83
2023/09/10 07:45:41;;;;;;;29.02;22.85;;;;;;;;;;4945383;28;20042;-81
2023/09/10 07:48:06;;;;;;;28.00;23.30;;;;;;;;;;4960236;28;20050;-82
2023/09/10 07:50:32;;;;;;;26.70;21.88;;;;;;;;;;4956947;28;20038;-82
2023/09/10 07:52:57;;;;;;;25.92;20.80;;;;;;;;;;4956636;28;20042;-81
2023/09/10 07:55:26;;;;;;;24.60;20.98;;;;;;;;;;4960786;28;20035;-82
2023/09/10 07:57:51;;;;;;;25.63;20.95;;;;;;;;;;4936564;28;20038;-81
2023/09/10 08:00:19;;;;;;;24.08;19.50;;;;;;;;;;4938112;28;20040;-82
2023/09/10 08:02:48;;;;;;;26.00;21.25;;;;;;;;;;4940836;28;20066;-82
2023/09/10 08:05:13;;;;;;;22.23;18.48;;;;;;;;;;4935359;28;20137;-82
2023/09/10 08:07:39;;;;;;;26.77;18.95;;;;;;;;;;4936627;28;20042;-81
2023/09/10 08:10:08;;;;;;;23.27;18.88;;;;;;;;;;4943019;28;20031;-81
2023/09/10 08:12:33;;;;;;;21.92;17.77;;;;;;;;;;4945698;28;20034;-84
2023/09/10 08:14:59;;;;;;;25.60;18.60;;;;;;;;;;4940698;28;20045;-82
2023/09/10 08:17:24;;;;;;;23.55;18.17;;;;;;;;;;4945838;28;20537;-82
2023/09/10 08:19:49;;;;;;;21.38;17.25;;;;;;;;;;4944892;28;20031;-81
2023/09/10 08:22:16;;;;;;;21.30;16.73;;;;;;;;;;4947619;28;20747;-83
2023/09/10 08:24:42;;;;;;;20.02;15.43;;;;;;;;;;4952186;28;20028;-82
2023/09/10 08:27:11;;;;;;;21.27;15.60;;;;;;;;;;4950744;28;20061;-82
2023/09/10 08:29:36;;;;;;;22.42;15.98;;;;;;;;;;4942390;28;20031;-82
2023/09/10 08:32:02;;;;;;;19.65;14.82;;;;;;;;;;4945544;28;20035;-83
2023/09/10 08:34:27;;;;;;;19.33;14.52;;;;;;;;;;4949310;28;20059;-82
2023/09/10 08:36:52;;;;;;;20.15;14.40;;;;;;;;;;4931718;28;20027;-83
2023/09/10 08:39:19;;;;;;;16.40;13.30;;;;;;;;;;4934571;28;20042;-82
2023/09/10 08:42:20;;;;;;;19.20;13.50;;;;;;;;;;4957597;28;20027;-81
2023/09/10 08:45:02;;;;;;;17.17;13.00;;;;;;;;;;4952004;28;20114;-82
2023/09/10 08:47:33;;;;;;;17.60;12.68;;;;;;;;;;4945942;28;20554;-82
2023/09/10 08:50:06;;;;;;;20.67;14.52;;;;;;;;;;4944482;28;20620;-82
2023/09/10 08:52:34;;;;;;;16.17;13.02;;;;;;;;;;4967154;28;20031;-83
2023/09/10 08:54:59;;;;;;;21.40;13.68;;;;;;;;;;4947418;28;20046;-83
2023/09/10 08:57:29;;;;;;;20.08;13.20;;;;;;;;;;4945105;28;20026;-83
2023/09/10 08:59:56;;;;;;;18.02;14.32;;;;;;;;;;4944094;28;20023;-84
2023/09/10 09:02:21;;;;;;;19.17;11.88;;;;;;;;;;4937956;28;20667;-82
2023/09/10 09:04:47;;;;;;;19.20;14.05;;;;;;;;;;4939968;28;20035;-83
2023/09/10 09:07:18;;;;;;;15.35;12.38;;;;;;;;;;4936261;28;20042;-82
2023/09/10 09:09:49;;;;;;;17.35;14.35;;;;;;;;;;4942264;28;20027;-82
2023/09/10 09:12:17;;;;;;;17.17;13.13;;;;;;;;;;4940043;28;20031;-83
2023/09/10 09:14:46;;;;;;;18.30;13.35;;;;;;;;;;4937355;28;20030;-84
2023/09/10 09:17:12;;;;;;;16.92;12.93;;;;;;;;;;4939113;28;20505;-83
2023/09/10 09:19:45;;;;;;;19.63;14.05;;;;;;;;;;4943159;28;20839;-82
2023/09/10 09:22:13;;;;;;;16.70;12.25;;;;;;;;;;4934681;28;20042;-83
2023/09/10 09:24:40;;;;;;;16.63;12.77;;;;;;;;;;4940555;28;20027;-82
2023/09/10 09:27:07;;;;;;;15.63;10.48;;;;;;;;;;4947053;28;20038;-82
2023/09/10 09:29:33;;;;;;;16.23;12.15;;;;;;;;;;4949482;28;20373;-81
2023/09/10 09:31:58;;;;;;;17.75;10.73;;;;;;;;;;4947056;28;20046;-81
2023/09/10 09:34:24;;;;;;;15.63;11.65;;;;;;;;;;4947974;28;20489;-83
2023/09/10 09:36:51;;;;;;;18.92;13.52;;;;;;;;;;4946721;28;20490;-83
2023/09/10 09:39:18;;;;;;;16.30;11.00;;;;;;;;;;4944849;28;20058;-82
2023/09/10 09:41:51;;;;;;;16.33;10.48;;;;;;;;;;4948677;28;20035;-82
2023/09/10 09:44:16;;;;;;;15.55;10.35;;;;;;;;;;4945115;28;20031;-83
2023/09/10 09:46:42;;;;;;;15.07;8.82;;;;;;;;;;4945729;28;20055;-82
2023/09/10 09:49:07;;;;;;;12.32;9.23;;;;;;;;;;4947954;28;20027;-83
2023/09/10 09:51:32;;;;;;;11.68;8.30;;;;;;;;;;4943239;28;20027;-82
2023/09/10 09:53:59;;;;;;;16.52;8.98;;;;;;;;;;4947122;28;20113;-81
2023/09/10 09:56:25;;;;;;;12.95;8.60;;;;;;;;;;4937757;28;20488;-83
2023/09/10 09:58:50;;;;;;;13.10;7.72;;;;;;;;;;4940520;28;20027;-84
2023/09/10 10:01:20;;;;;;;15.18;8.73;;;;;;;;;;4943495;28;20472;-84
2023/09/10 10:03:45;;;;;;;12.48;8.05;;;;;;;;;;4935895;28;20117;-83
2023/09/10 10:09:36;;;;;;;13.77;9.13;;;;;;;;;;4947584;28;20046;-84
2023/09/10 10:12:04;;;;;;;10.60;7.63;;;;;;;;;;4937056;28;20499;-83
2023/09/10 10:14:31;;;;;;;11.20;9.00;;;;;;;;;;4942230;28;20105;-83
2023/09/10 10:16:59;;;;;;;9.82;7.50;;;;;;;;;;4943099;28;20126;-85
2023/09/10 10:19:25;;;;;;;14.07;7.60;;;;;;;;;;4945163;28;20562;-84
2023/09/10 10:21:55;;;;;;;11.20;6.57;;;;;;;;;;4942795;28;20031;-85
2023/09/10 10:24:24;;;;;;;16.45;7.97;;;;;;;;;;4937114;28;20030;-84
2023/09/10 10:26:51;;;;;;;15.63;7.32;;;;;;;;;;4945335;28;20049;-84
2023/09/10 10:29:21;;;;;;;9.38;7.00;;;;;;;;;;4945111;28;20161;-86
2023/09/10 10:31:55;;;;;;;11.48;7.35;;;;;;;;;;4944078;28;20118;-85
2023/09/10 10:34:26;;;;;;;10.57;7.30;;;;;;;;;;4942991;28;20027;-86
2023/09/10 10:37:10;;;;;;;12.82;7.60;;;;;;;;;;4941822;28;20400;-84
2023/09/10 10:40:08;;;;;;;10.48;6.63;;;;;;;;;;4949214;28;20407;-85
2023/09/10 10:43:03;;;;;;;12.93;7.22;;;;;;;;;;4949444;28;20114;-84
2023/09/10 10:45:30;;;;;;;10.25;6.72;;;;;;;;;;4947501;28;20407;-86
2023/09/10 10:48:01;;;;;;;10.45;6.57;;;;;;;;;;4948478;28;20031;-85
2023/09/10 10:50:29;;;;;;;11.13;6.70;;;;;;;;;;4952783;28;20106;-85
2023/09/10 10:52:58;;;;;;;9.50;6.97;;;;;;;;;;4947787;28;20665;-84
2023/09/10 10:55:25;;;;;;;10.50;8.13;;;;;;;;;;4948435;28;20030;-84
2023/09/10 10:57:52;;;;;;;11.75;8.60;;;;;;;;;;4944205;28;20028;-85
2023/09/10 11:00:19;;;;;;;10.25;6.22;;;;;;;;;;4945360;28;20535;-85
2023/09/10 11:02:45;;;;;;;9.85;6.38;;;;;;;;;;4951853;28;20081;-85
2023/09/10 11:05:10;;;;;;;11.75;8.00;;;;;;;;;;4945184;28;20039;-85
2023/09/10 11:08:27;;;;;;;11.30;7.28;;;;;;;;;;4942956;28;20032;-85
2023/09/10 11:10:54;;;;;;;8.77;6.90;;;;;;;;;;4941982;28;20390;-85
2023/09/10 11:13:19;;;;;;;10.63;5.60;;;;;;;;;;4945613;28;20418;-85
2023/09/10 11:16:03;;;;;;;9.80;6.25;;;;;;;;;;4942369;28;20031;-84
2023/09/10 11:18:34;;;;;;;10.07;5.90;;;;;;;;;;4942506;28;20516;-83
2023/09/10 11:21:05;;;;;;;15.07;6.10;;;;;;;;;;4938968;28;20487;-85
2023/09/10 11:23:35;;;;;;;10.35;5.65;;;;;;;;;;4957233;28;20427;-84
2023/09/10 11:26:26;;;;;;;8.80;5.93;;;;;;;;;;4937764;28;20031;-83
2023/09/10 11:28:57;;;;;;;8.00;5.65;;;;;;;;;;4925690;28;20492;-83
2023/09/10 11:31:36;;;;;;;10.85;5.68;;;;;;;;;;4949405;28;20480;-83
2023/09/10 11:36:50;;;;;;;9.23;5.75;;;;;;;;;;4936213;28;20483;-84
2023/09/10 11:39:17;;;;;;;8.52;5.25;;;;;;;;;;4938104;28;20102;-84
2023/09/10 11:41:44;;;;;;;9.68;5.35;;;;;;;;;;4937500;28;20753;-85
2023/09/10 11:44:10;;;;;;;6.78;4.85;;;;;;;;;;4932424;28;20352;-85
2023/09/10 11:46:36;;;;;;;9.85;5.00;;;;;;;;;;4939378;28;20033;-84
2023/09/10 11:49:02;;;;;;;9.13;5.25;;;;;;;;;;4936158;28;20035;-85
2023/09/10 11:51:28;;;;;;;6.50;4.40;;;;;;;;;;4935476;28;21041;-84
2023/09/10 11:53:54;;;;;;;10.80;4.90;;;;;;;;;;4934758;28;20840;-84
2023/09/10 11:56:19;;;;;;;10.55;4.97;;;;;;;;;;4956043;28;20113;-85
2023/09/10 11:58:45;;;;;;;15.20;6.65;;;;;;;;;;4938967;28;20459;-84
2023/09/10 12:01:10;;;;;;;9.10;6.03;;;;;;;;;;4930792;28;20027;-84
2023/09/10 12:03:35;;;;;;;10.13;5.60;;;;;;;;;;4936416;28;20035;-85
2023/09/10 12:06:02;;;;;;;10.25;6.18;;;;;;;;;;4941247;28;20185;-85
2023/09/10 12:08:27;;;;;;;10.23;6.05;;;;;;;;;;4932198;28;20035;-84
2023/09/10 12:10:58;;;;;;;7.22;5.55;;;;;;;;;;4934225;28;20487;-84
2023/09/10 12:13:24;;;;;;;9.57;5.55;;;;;;;;;;4936002;28;20058;-84
2023/09/10 12:15:52;;;;;;;11.80;5.60;;;;;;;;;;4938709;28;20034;-84
2023/09/10 12:18:18;;;;;;;9.20;5.57;;;;;;;;;;4929646;28;20027;-85
2023/09/10 12:20:44;;;;;;;8.65;5.82;;;;;;;;;;4941481;28;20031;-84
2023/09/10 12:23:12;;;;;;;8.43;5.55;;;;;;;;;;4939515;28;20035;-84
2023/09/10 12:25:38;;;;;;;9.13;6.20;;;;;;;;;;4940177;28;20046;-84
2023/09/10 12:28:04;;;;;;;12.27;5.90;;;;;;;;;;4943019;28;20470;-85
2023/09/10 12:30:29;;;;;;;10.32;5.47;;;;;;;;;;4963311;28;20027;-85
2023/09/10 12:32:54;;;;;;;9.18;5.40;;;;;;;;;;4942732;28;20041;-85
2023/09/10 12:35:21;;;;;;;10.10;5.82;;;;;;;;;;4936875;28;20042;-85
2023/09/10 12:37:54;;;;;;;11.20;5.95;;;;;;;;;;4935364;28;20023;-85
2023/09/10 12:40:20;;;;;;;11.23;6.75;;;;;;;;;;4942415;28;20118;-85
2023/09/10 12:42:46;;;;;;;11.13;7.07;;;;;;;;;;4945029;28;20078;-84
2023/09/10 12:45:13;;;;;;;9.02;5.78;;;;;;;;;;4944831;28;20762;-83
2023/09/10 12:47:39;;;;;;;11.10;6.13;;;;;;;;;;4946007;28;20471;-83
2023/09/10 12:50:06;;;;;;;10.35;6.07;;;;;;;;;;4945532;28;20089;-84
2023/09/10 12:52:32;;;;;;;11.90;5.93;;;;;;;;;;4948059;28;20387;-85
2023/09/10 12:54:58;;;;;;;8.68;5.70;;;;;;;;;;4941298;28;20034;-85
2023/09/10 12:57:23;;;;;;;9.05;5.40;;;;;;;;;;4942444;28;20484;-86
2023/09/10 12:59:55;;;;;;;9.98;6.30;;;;;;;;;;4944813;28;20510;-86
2023/09/10 13:02:24;;;;;;;11.38;5.78;;;;;;;;;;4933673;28;20547;-84
2023/09/10 13:04:49;;;;;;;7.03;4.93;;;;;;;;;;4939838;28;20554;-84
2023/09/10 13:07:15;;;;;;;9.43;5.00;;;;;;;;;;4934481;28;20060;-83
2023/09/10 13:09:41;;;;;;;10.75;5.78;;;;;;;;;;4937076;28;20062;-86
2023/09/10 13:12:06;;;;;;;10.20;4.95;;;;;;;;;;4939167;28;20071;-85
2023/09/10 13:14:37;;;;;;;10.68;4.95;;;;;;;;;;4940718;28;20116;-84
2023/09/10 13:17:03;;;;;;;7.40;4.93;;;;;;;;;;4939880;28;20434;-83
2023/09/10 13:19:29;;;;;;;9.88;4.97;;;;;;;;;;4936993;28;20031;-83
2023/09/10 13:21:54;;;;;;;13.35;5.25;;;;;;;;;;4940931;28;20034;-84
2023/09/10 13:24:23;;;;;;;8.70;5.35;;;;;;;;;;4939609;28;20089;-83
2023/09/10 13:26:50;;;;;;;9.73;5.10;;;;;;;;;;4939733;28;20374;-84
2023/09/10 13:29:16;;;;;;;7.28;4.82;;;;;;;;;;4935669;28;20023;-83
2023/09/10 13:31:41;;;;;;;7.15;4.25;;;;;;;;;;4953816;28;20038;-82
2023/09/10 13:34:08;;;;;;;8.35;4.60;;;;;;;;;;4936258;29;20035;-84
2023/09/10 13:40:17;;;;;;;12.52;5.10;;;;;;;;;;4939490;28;20049;-83
2023/09/10 13:42:42;;;;;;;9.45;4.85;;;;;;;;;;4942241;28;20086;-82
2023/09/10 13:45:08;;;;;;;9.15;4.90;;;;;;;;;;4935005;28;20035;-82
2023/09/10 13:47:33;;;;;;;8.18;5.05;;;;;;;;;;4935926;28;20077;-85
2023/09/10 13:49:59;;;;;;;11.25;5.15;;;;;;;;;;4932582;28;20491;-83
2023/09/10 13:52:24;;;;;;;13.18;5.20;;;;;;;;;;4946670;28;20027;-83
2023/09/10 13:54:49;;;;;;;10.63;5.45;;;;;;;;;;4939229;28;20031;-84
2023/09/10 13:57:15;;;;;;;12.13;5.00;;;;;;;;;;4940730;28;20055;-84
2023/09/10 13:59:40;;;;;;;7.15;4.70;;;;;;;;;;4935852;28;20388;-82
2023/09/10 14:02:05;;;;;;;7.63;4.82;;;;;;;;;;4939475;28;20050;-85
2023/09/10 14:04:31;;;;;;;7.88;4.07;;;;;;;;;;4936854;28;20027;-84
2023/09/10 14:06:56;;;;;;;8.73;4.88;;;;;;;;;;4939648;28;20122;-84
2023/09/10 14:09:22;;;;;;;6.85;3.97;;;;;;;;;;4957740;28;20511;-83
2023/09/10 14:11:47;;;;;;;5.70;4.00;;;;;;;;;;4943522;28;20039;-83
2023/09/10 14:14:12;;;;;;;9.57;4.20;;;;;;;;;;4936274;28;20074;-86
2023/09/10 14:16:38;;;;;;;6.55;4.32;;;;;;;;;;4964556;28;20085;-87
2023/09/10 14:19:04;;;;;;;8.18;4.28;;;;;;;;;;4945832;28;20074;-86
2023/09/10 14:21:29;;;;;;;7.95;4.60;;;;;;;;;;4926514;28;20554;-84
2023/09/10 14:23:58;;;;;;;12.90;4.45;;;;;;;;;;4948208;28;20042;-85
2023/09/10 14:26:23;;;;;;;6.93;4.50;;;;;;;;;;4946593;28;20055;-87
2023/09/10 14:28:49;;;;;;;8.35;4.28;;;;;;;;;;4950804;28;20073;-86
2023/09/10 14:31:14;;;;;;;8.02;4.30;;;;;;;;;;4947585;28;20042;-83
2023/09/10 14:33:41;;;;;;;9.15;4.30;;;;;;;;;;4952725;28;20031;-86